Time;durP1;ratioP1;P1;durP2;ratioP2;P2;SDS_P1;SDS_P2;PMS_P1;PMS_P2;Temp;Humidity;BMP_temperature;BMP_pressure;BME280_temperature;BME280_humidity;BME280_pressure;Samples;Min_cycle;Max_cycle;Signal;HPM_P1;HPM_P2
2021/01/05 00:00:04;;;;;;;;;;;16.60;66.70;;;;;;1066082;27;19947;-75
2021/01/05 00:00:36;;;;;;;;;;;16.60;66.70;;;;;;1059476;28;19915;-73
2021/01/05 00:01:07;;;;;;;;;;;16.60;66.60;;;;;;1056163;28;20197;-74
2021/01/05 00:01:38;;;;;;;;;;;16.50;67.30;;;;;;1054627;28;19948;-74
2021/01/05 00:02:09;;;;;;;;;;;16.50;67.90;;;;;;1053201;28;19916;-73
2021/01/05 00:02:40;;;;;;;;;;;16.50;67.50;;;;;;1059567;28;20328;-74
2021/01/05 00:03:11;;;;;;;;;;;16.50;67.40;;;;;;1059553;27;19955;-73
2021/01/05 00:03:42;;;;;;;;;;;16.50;67.30;;;;;;1061337;28;20411;-74
2021/01/05 00:04:13;;;;;;;;;;;16.50;66.80;;;;;;1056650;28;19976;-74
2021/01/05 00:04:45;;;;;;;;;;;16.60;66.50;;;;;;1057180;28;19925;-74
2021/01/05 00:05:16;;;;;;;;;;;16.60;66.30;;;;;;1056746;28;19904;-74
2021/01/05 00:05:47;;;;;;;;;;;16.50;66.90;;;;;;1057289;28;19940;-74
2021/01/05 00:06:18;;;;;;;;;;;16.50;66.90;;;;;;1061185;28;19926;-74
2021/01/05 00:06:49;;;;;;;;;;;16.50;67.30;;;;;;1061676;28;20329;-74
2021/01/05 00:07:20;;;;;;;;;;;16.50;67.60;;;;;;1061380;28;19910;-73
2021/01/05 00:07:51;;;;;;;;;;;16.50;68.00;;;;;;1061867;27;20324;-74
2021/01/05 00:08:22;;;;;;;;;;;16.50;68.20;;;;;;1066116;27;19899;-74
2021/01/05 00:08:53;;;;;;;;;;;16.50;68.00;;;;;;1061553;28;19910;-74
2021/01/05 00:09:24;;;;;;;;;;;16.50;67.80;;;;;;1060879;28;19899;-74
2021/01/05 00:09:55;;;;;;;;;;;16.50;67.70;;;;;;1061681;28;20309;-74
2021/01/05 00:10:27;;;;;;;;;;;16.40;67.80;;;;;;1057124;28;20389;-75
2021/01/05 00:10:58;;;;;;;;;;;16.40;67.80;;;;;;1054670;28;20330;-74
2021/01/05 00:11:29;;;;;;;;;;;16.40;67.90;;;;;;1057230;28;19938;-74
2021/01/05 00:12:00;;;;;;;;;;;16.40;68.20;;;;;;1053414;28;19947;-74
2021/01/05 00:12:31;;;;;;;;;;;16.30;68.40;;;;;;1057772;28;20287;-74
2021/01/05 00:13:02;;;;;;;;;;;16.40;68.70;;;;;;1057369;28;19922;-74
2021/01/05 00:13:33;;;;;;;;;;;16.40;68.90;;;;;;1053267;28;19911;-74
2021/01/05 00:14:04;;;;;;;;;;;16.40;68.70;;;;;;1054610;28;19998;-74
2021/01/05 00:14:38;;;;;;;;;;;16.40;68.70;;;;;;1053059;28;20007;-73
2021/01/05 00:15:10;;;;;;;;;;;16.40;68.70;;;;;;1054991;27;19912;-73
2021/01/05 00:15:41;;;;;;;;;;;16.30;68.20;;;;;;1055782;28;19940;-74
2021/01/05 00:16:12;;;;;;;;;;;16.30;68.40;;;;;;1057068;27;19908;-74
2021/01/05 00:16:43;;;;;;;;;;;16.30;68.40;;;;;;1059598;27;19954;-74
2021/01/05 00:17:16;;;;;;;;;;;16.30;68.60;;;;;;1059139;27;20261;-74
2021/01/05 00:17:47;;;;;;;;;;;16.30;69.00;;;;;;1059299;27;20395;-74
2021/01/05 00:18:18;;;;;;;;;;;16.20;69.10;;;;;;1061808;27;19914;-74
2021/01/05 00:18:49;;;;;;;;;;;16.20;69.30;;;;;;1060356;27;19900;-74
2021/01/05 00:19:21;;;;;;;;;;;16.20;68.90;;;;;;1060865;27;19908;-74
2021/01/05 00:19:52;;;;;;;;;;;16.20;68.70;;;;;;1062090;27;19994;-74
2021/01/05 00:20:25;;;;;;;;;;;16.20;68.50;;;;;;1063901;27;20234;-74
2021/01/05 00:20:56;;;;;;;;;;;16.20;68.30;;;;;;1062682;27;20327;-74
2021/01/05 00:21:27;;;;;;;;;;;16.20;68.40;;;;;;1062917;27;19899;-73
2021/01/05 00:21:58;;;;;;;;;;;16.20;68.40;;;;;;1065326;27;19907;-73
2021/01/05 00:22:29;;;;;;;;;;;16.10;68.70;;;;;;1064562;27;20312;-73
2021/01/05 00:23:00;;;;;;;;;;;16.10;68.50;;;;;;1064738;27;19964;-74
2021/01/05 00:23:31;;;;;;;;;;;16.10;68.10;;;;;;1065506;27;19903;-74
2021/01/05 00:24:03;;;;;;;;;;;16.10;68.60;;;;;;1058177;27;19903;-74
2021/01/05 00:24:34;;;;;;;;;;;16.10;68.20;;;;;;1060386;27;19918;-74
2021/01/05 00:25:07;;;;;;;;;;;16.10;68.10;;;;;;1058874;27;19911;-74
2021/01/05 00:25:38;;;;;;;;;;;16.10;68.20;;;;;;1062641;27;19977;-74
2021/01/05 00:26:09;;;;;;;;;;;16.10;68.00;;;;;;1062264;27;19903;-75
2021/01/05 00:26:40;;;;;;;;;;;16.10;68.60;;;;;;1057650;28;20398;-75
2021/01/05 00:27:11;;;;;;;;;;;16.10;69.00;;;;;;1055794;28;19904;-75
2021/01/05 00:27:42;;;;;;;;;;;16.20;69.30;;;;;;1053637;28;19919;-74
2021/01/05 00:28:14;;;;;;;;;;;16.10;69.40;;;;;;1057486;28;20353;-74
2021/01/05 00:28:45;;;;;;;;;;;16.20;69.80;;;;;;1058603;27;20039;-74
2021/01/05 00:29:16;;;;;;;;;;;16.10;69.40;;;;;;1064743;27;19919;-74
2021/01/05 00:29:47;;;;;;;;;;;16.10;69.70;;;;;;1064731;27;20236;-74
2021/01/05 00:30:20;;;;;;;;;;;16.10;69.60;;;;;;1060150;27;19939;-73
2021/01/05 00:30:51;;;;;;;;;;;16.10;69.50;;;;;;1061086;27;19918;-74
2021/01/05 00:31:22;;;;;;;;;;;16.10;69.50;;;;;;1061074;27;19904;-75
2021/01/05 00:32:12;;;;;;;;;;;16.10;68.60;;;;;;1062181;27;19904;-75
2021/01/05 00:32:43;;;;;;;;;;;16.10;68.90;;;;;;1060748;27;20362;-74
2021/01/05 00:33:14;;;;;;;;;;;16.10;69.10;;;;;;1061264;27;19950;-73
2021/01/05 00:33:45;;;;;;;;;;;16.00;68.40;;;;;;1065476;27;19903;-73
2021/01/05 00:34:16;;;;;;;;;;;16.00;68.50;;;;;;1066861;27;20659;-74
2021/01/05 00:34:48;;;;;;;;;;;16.00;68.50;;;;;;1066893;27;19903;-73
2021/01/05 00:35:21;;;;;;;;;;;16.00;68.60;;;;;;1062100;27;19982;-74
2021/01/05 00:35:52;;;;;;;;;;;16.00;68.30;;;;;;1062253;27;19903;-73
2021/01/05 00:36:24;;;;;;;;;;;16.00;68.70;;;;;;1057883;28;20332;-73
2021/01/05 00:36:55;;;;;;;;;;;16.00;68.90;;;;;;1058249;27;20307;-73
2021/01/05 00:37:26;;;;;;;;;;;16.00;68.90;;;;;;1062136;27;19986;-75
2021/01/05 00:37:57;;;;;;;;;;;16.00;68.70;;;;;;1058438;27;19912;-74
2021/01/05 00:38:28;;;;;;;;;;;16.00;69.00;;;;;;1062411;27;19971;-74
2021/01/05 00:38:59;;;;;;;;;;;16.00;69.60;;;;;;1062174;27;20337;-74
2021/01/05 00:39:30;;;;;;;;;;;16.00;69.20;;;;;;1060782;27;19955;-74
2021/01/05 00:40:02;;;;;;;;;;;16.00;69.10;;;;;;1066783;27;19955;-74
2021/01/05 00:40:33;;;;;;;;;;;16.00;68.80;;;;;;1063785;27;19963;-73
2021/01/05 00:41:05;;;;;;;;;;;16.00;68.40;;;;;;1066402;27;19907;-74
2021/01/05 00:41:36;;;;;;;;;;;16.00;68.70;;;;;;1065959;27;19972;-73
2021/01/05 00:42:07;;;;;;;;;;;16.00;69.40;;;;;;1063396;27;19965;-73
2021/01/05 00:42:38;;;;;;;;;;;16.00;68.30;;;;;;1065740;27;20047;-73
2021/01/05 00:43:09;;;;;;;;;;;16.00;68.70;;;;;;1064086;27;19960;-73
2021/01/05 00:43:40;;;;;;;;;;;16.00;68.90;;;;;;1065464;27;19907;-73
2021/01/05 00:44:11;;;;;;;;;;;16.00;69.30;;;;;;1062065;27;19915;-74
2021/01/05 00:44:42;;;;;;;;;;;16.00;69.40;;;;;;1062434;27;19990;-73
2021/01/05 00:45:17;;;;;;;;;;;16.00;69.70;;;;;;1060731;27;19904;-75
2021/01/05 00:45:48;;;;;;;;;;;16.00;69.70;;;;;;1060630;27;19947;-74
2021/01/05 00:46:19;;;;;;;;;;;16.00;69.70;;;;;;1059323;27;19911;-74
2021/01/05 00:46:51;;;;;;;;;;;16.00;69.40;;;;;;1061195;27;19952;-74
2021/01/05 00:47:22;;;;;;;;;;;16.00;69.00;;;;;;1062182;27;19911;-75
2021/01/05 00:47:53;;;;;;;;;;;16.00;69.40;;;;;;1061949;27;19903;-75
2021/01/05 00:48:24;;;;;;;;;;;16.00;69.80;;;;;;1058037;28;20331;-74
2021/01/05 00:48:55;;;;;;;;;;;16.00;69.40;;;;;;1056357;27;19914;-75
2021/01/05 00:49:26;;;;;;;;;;;16.00;69.10;;;;;;1062216;27;19899;-74
2021/01/05 00:49:57;;;;;;;;;;;16.00;68.70;;;;;;1062297;27;19988;-75
2021/01/05 00:50:28;;;;;;;;;;;16.00;68.20;;;;;;1061966;27;19903;-75
2021/01/05 00:50:59;;;;;;;;;;;16.00;68.40;;;;;;1062395;27;19899;-74
2021/01/05 00:51:30;;;;;;;;;;;16.00;68.60;;;;;;1065927;27;19899;-75
2021/01/05 00:52:01;;;;;;;;;;;15.90;68.40;;;;;;1066731;27;20349;-75
2021/01/05 00:52:32;;;;;;;;;;;15.90;68.60;;;;;;1066781;27;20236;-75
2021/01/05 00:53:03;;;;;;;;;;;15.90;68.50;;;;;;1066826;27;19899;-75
2021/01/05 00:53:34;;;;;;;;;;;15.90;68.30;;;;;;1066611;27;19990;-75
2021/01/05 00:54:05;;;;;;;;;;;15.90;68.40;;;;;;1062134;27;20337;-74
2021/01/05 00:54:37;;;;;;;;;;;15.80;68.70;;;;;;1057708;28;19911;-74
2021/01/05 00:55:08;;;;;;;;;;;15.80;68.60;;;;;;1051945;28;20300;-74
2021/01/05 00:55:39;;;;;;;;;;;15.80;68.60;;;;;;1052838;28;19904;-74
2021/01/05 00:56:10;;;;;;;;;;;15.80;68.50;;;;;;1057997;27;19900;-75
2021/01/05 00:56:41;;;;;;;;;;;15.80;69.00;;;;;;1054258;28;19904;-75
2021/01/05 00:57:12;;;;;;;;;;;15.80;69.20;;;;;;1058040;28;20261;-75
2021/01/05 00:57:44;;;;;;;;;;;15.80;69.30;;;;;;1057900;28;20003;-74
2021/01/05 00:58:15;;;;;;;;;;;15.80;68.90;;;;;;1062032;27;19908;-75
2021/01/05 00:58:46;;;;;;;;;;;15.80;68.90;;;;;;1060462;27;19908;-75
2021/01/05 00:59:17;;;;;;;;;;;15.80;68.90;;;;;;1059798;27;19990;-74
2021/01/05 00:59:48;;;;;;;;;;;15.80;69.20;;;;;;1061719;27;20343;-75
2021/01/05 01:00:21;;;;;;;;;;;15.80;69.10;;;;;;1058232;27;19907;-75
2021/01/05 01:00:52;;;;;;;;;;;15.80;69.40;;;;;;1066261;27;20293;-74
2021/01/05 01:01:23;;;;;;;;;;;15.70;68.90;;;;;;1066607;27;20338;-74
2021/01/05 01:01:54;;;;;;;;;;;15.70;68.80;;;;;;1066803;27;19898;-74
2021/01/05 01:02:25;;;;;;;;;;;15.70;68.90;;;;;;1066092;27;19955;-74
2021/01/05 01:02:56;;;;;;;;;;;15.70;69.00;;;;;;1062763;27;19960;-74
2021/01/05 01:03:27;;;;;;;;;;;15.70;69.00;;;;;;1066303;27;20597;-74
2021/01/05 01:03:58;;;;;;;;;;;15.60;68.90;;;;;;1066784;27;20229;-74
2021/01/05 01:04:30;;;;;;;;;;;15.60;68.90;;;;;;1061861;27;19990;-74
2021/01/05 01:05:01;;;;;;;;;;;15.60;69.20;;;;;;1062274;27;19903;-73
2021/01/05 01:05:32;;;;;;;;;;;15.60;69.40;;;;;;1061416;27;19907;-73
2021/01/05 01:06:03;;;;;;;;;;;15.60;69.30;;;;;;1062249;27;19903;-74
2021/01/05 01:06:34;;;;;;;;;;;15.60;69.40;;;;;;1062196;27;19914;-75
2021/01/05 01:07:05;;;;;;;;;;;15.60;69.40;;;;;;1062559;27;19990;-74
2021/01/05 01:07:36;;;;;;;;;;;15.50;69.00;;;;;;1066697;27;19903;-74
2021/01/05 01:08:07;;;;;;;;;;;15.60;69.00;;;;;;1065646;27;19903;-75
2021/01/05 01:08:38;;;;;;;;;;;15.50;68.10;;;;;;1063533;27;19939;-73
2021/01/05 01:09:09;;;;;;;;;;;15.50;67.80;;;;;;1066636;27;20274;-74
2021/01/05 01:09:40;;;;;;;;;;;15.50;68.30;;;;;;1066420;27;19910;-74
2021/01/05 01:10:12;;;;;;;;;;;15.60;68.40;;;;;;1066492;27;19971;-75
2021/01/05 01:10:43;;;;;;;;;;;15.60;68.50;;;;;;1065278;27;19903;-74
2021/01/05 01:11:15;;;;;;;;;;;15.60;68.70;;;;;;1066667;27;20320;-75
2021/01/05 01:11:56;;;;;;;;;;;15.50;68.80;;;;;;1066673;27;20316;-74
2021/01/05 01:12:27;;;;;;;;;;;15.60;68.90;;;;;;1066819;27;19914;-73
2021/01/05 01:12:58;;;;;;;;;;;15.50;69.00;;;;;;1066813;27;19918;-73
2021/01/05 01:13:29;;;;;;;;;;;15.40;69.00;;;;;;1061449;27;19911;-74
2021/01/05 01:14:00;;;;;;;;;;;15.50;69.40;;;;;;1057843;28;19911;-75
2021/01/05 01:14:32;;;;;;;;;;;15.40;69.50;;;;;;1057921;28;20002;-74
2021/01/05 01:15:03;;;;;;;;;;;15.40;69.50;;;;;;1058297;27;19915;-73
2021/01/05 01:15:35;;;;;;;;;;;15.40;69.80;;;;;;1055664;28;19904;-74
2021/01/05 01:16:06;;;;;;;;;;;15.40;69.90;;;;;;1060094;27;19915;-74
2021/01/05 01:16:37;;;;;;;;;;;15.40;69.90;;;;;;1061052;27;19904;-74
2021/01/05 01:17:09;;;;;;;;;;;15.40;70.10;;;;;;1062411;27;19986;-74
2021/01/05 01:17:40;;;;;;;;;;;15.40;69.70;;;;;;1066285;27;19914;-74
2021/01/05 01:18:11;;;;;;;;;;;15.40;70.00;;;;;;1065580;27;19911;-75
2021/01/05 01:18:42;;;;;;;;;;;15.40;70.70;;;;;;1066662;27;19903;-74
2021/01/05 01:19:13;;;;;;;;;;;15.40;70.10;;;;;;1061997;27;19935;-74
2021/01/05 01:19:44;;;;;;;;;;;15.40;69.90;;;;;;1061673;27;20348;-74
2021/01/05 01:20:15;;;;;;;;;;;15.30;69.60;;;;;;1061802;27;19904;-74
2021/01/05 01:20:46;;;;;;;;;;;15.30;69.90;;;;;;1062337;27;19960;-74
2021/01/05 01:21:17;;;;;;;;;;;15.30;70.10;;;;;;1060598;27;19968;-74
2021/01/05 01:21:49;;;;;;;;;;;15.30;69.50;;;;;;1061633;27;20380;-74
2021/01/05 01:22:21;;;;;;;;;;;15.30;69.30;;;;;;1060709;27;20347;-75
2021/01/05 01:22:52;;;;;;;;;;;15.30;69.10;;;;;;1054208;28;19923;-75
2021/01/05 01:23:23;;;;;;;;;;;15.30;69.00;;;;;;1058450;27;19903;-76
2021/01/05 01:23:54;;;;;;;;;;;15.40;68.70;;;;;;1058821;27;20363;-76
2021/01/05 01:24:25;;;;;;;;;;;15.40;68.60;;;;;;1059197;27;19914;-75
2021/01/05 01:24:56;;;;;;;;;;;15.30;68.60;;;;;;1063399;27;19903;-75
2021/01/05 01:25:27;;;;;;;;;;;15.40;68.80;;;;;;1065995;27;19907;-75
2021/01/05 01:25:58;;;;;;;;;;;15.30;69.00;;;;;;1065025;27;19909;-75
2021/01/05 01:26:29;;;;;;;;;;;15.30;69.00;;;;;;1065418;27;19910;-74
2021/01/05 01:27:01;;;;;;;;;;;15.30;69.10;;;;;;1065562;27;19926;-74
2021/01/05 01:27:32;;;;;;;;;;;15.30;69.10;;;;;;1065722;27;21287;-75
2021/01/05 01:28:03;;;;;;;;;;;15.30;69.40;;;;;;1062862;27;19976;-74
2021/01/05 01:28:34;;;;;;;;;;;15.30;69.40;;;;;;1063937;27;19914;-74
2021/01/05 01:29:05;;;;;;;;;;;15.30;69.40;;;;;;1062020;27;19903;-75
2021/01/05 01:29:36;;;;;;;;;;;15.30;69.30;;;;;;1057134;28;19962;-74
2021/01/05 01:30:08;;;;;;;;;;;15.20;69.60;;;;;;1055172;28;20376;-75
2021/01/05 01:30:42;;;;;;;;;;;15.30;69.40;;;;;;1056925;28;19904;-75
2021/01/05 01:31:13;;;;;;;;;;;15.30;69.40;;;;;;1058569;27;19915;-74
2021/01/05 01:31:44;;;;;;;;;;;15.20;68.90;;;;;;1062061;27;20256;-75
2021/01/05 01:32:18;;;;;;;;;;;15.20;68.90;;;;;;1062335;27;19914;-75
2021/01/05 01:32:49;;;;;;;;;;;15.20;68.70;;;;;;1066364;27;19910;-74
2021/01/05 01:33:20;;;;;;;;;;;15.20;68.40;;;;;;1065091;27;20005;-74
2021/01/05 01:33:51;;;;;;;;;;;15.10;68.70;;;;;;1061148;27;19915;-75
2021/01/05 01:34:24;;;;;;;;;;;15.10;68.70;;;;;;1062069;27;19934;-74
2021/01/05 01:34:55;;;;;;;;;;;15.10;68.60;;;;;;1062263;27;19986;-75
2021/01/05 01:35:26;;;;;;;;;;;15.10;68.80;;;;;;1061931;27;20329;-75
2021/01/05 01:35:57;;;;;;;;;;;15.10;68.70;;;;;;1062085;27;19903;-74
2021/01/05 01:36:28;;;;;;;;;;;15.10;69.10;;;;;;1061565;27;19907;-74
2021/01/05 01:37:00;;;;;;;;;;;15.10;69.00;;;;;;1061031;27;21185;-75
2021/01/05 01:37:31;;;;;;;;;;;15.00;68.80;;;;;;1061788;27;19915;-74
2021/01/05 01:38:02;;;;;;;;;;;15.00;69.10;;;;;;1061938;27;20320;-74
2021/01/05 01:38:33;;;;;;;;;;;15.00;69.10;;;;;;1061265;27;19907;-74
2021/01/05 01:39:05;;;;;;;;;;;15.00;68.80;;;;;;1053890;28;19943;-75
2021/01/05 01:39:40;;;;;;;;;;;15.00;69.00;;;;;;1059802;27;19965;-76
2021/01/05 01:40:12;;;;;;;;;;;15.00;69.20;;;;;;1062034;27;19903;-75
2021/01/05 01:40:43;;;;;;;;;;;15.00;69.30;;;;;;1061926;27;19914;-76
2021/01/05 01:41:14;;;;;;;;;;;15.00;69.00;;;;;;1062632;27;19904;-75
2021/01/05 01:41:45;;;;;;;;;;;15.00;68.50;;;;;;1059374;27;19907;-74
2021/01/05 01:42:18;;;;;;;;;;;14.90;68.20;;;;;;1060165;27;19993;-75
2021/01/05 01:42:49;;;;;;;;;;;14.90;68.00;;;;;;1062120;27;20242;-75
2021/01/05 01:43:20;;;;;;;;;;;14.90;68.30;;;;;;1060701;27;19915;-74
2021/01/05 01:43:55;;;;;;;;;;;14.90;68.00;;;;;;1063654;27;20317;-74
2021/01/05 01:44:28;;;;;;;;;;;15.00;67.80;;;;;;1062258;27;19990;-75
2021/01/05 01:44:59;;;;;;;;;;;15.00;67.70;;;;;;1063927;27;19912;-75
2021/01/05 01:45:31;;;;;;;;;;;15.00;67.50;;;;;;1065244;27;20380;-75
2021/01/05 01:46:02;;;;;;;;;;;15.00;68.00;;;;;;1064554;27;19907;-75
2021/01/05 01:46:34;;;;;;;;;;;15.00;67.80;;;;;;1063189;27;20302;-75
2021/01/05 01:47:17;;;;;;;;;;;15.00;67.70;;;;;;1062947;27;20067;-75
2021/01/05 01:47:48;;;;;;;;;;;15.00;66.30;;;;;;1062318;27;20236;-76
2021/01/05 01:48:19;;;;;;;;;;;15.00;66.30;;;;;;1057744;28;19910;-77
2021/01/05 01:48:50;;;;;;;;;;;15.00;66.60;;;;;;1056717;27;19911;-75
2021/01/05 01:49:21;;;;;;;;;;;15.00;66.90;;;;;;1051617;28;20432;-76
2021/01/05 01:49:57;;;;;;;;;;;15.00;66.80;;;;;;1048462;28;19988;-76
2021/01/05 01:50:31;;;;;;;;;;;15.00;67.20;;;;;;1050421;28;19904;-76
2021/01/05 01:51:02;;;;;;;;;;;14.90;67.00;;;;;;1050261;28;19900;-75
2021/01/05 01:51:33;;;;;;;;;;;15.00;67.10;;;;;;1059994;27;20506;-76
2021/01/05 01:52:06;;;;;;;;;;;15.00;67.40;;;;;;1063725;27;20251;-75
2021/01/05 01:52:55;;;;;;;;;;;15.00;67.40;;;;;;1060383;27;19911;-74
2021/01/05 01:54:05;;;;;;;;;;;15.00;67.40;;;;;;1066158;27;19943;-75
2021/01/05 01:54:36;;;;;;;;;;;14.90;67.40;;;;;;1044572;28;19916;-74
2021/01/05 01:55:07;;;;;;;;;;;14.90;68.10;;;;;;1044729;28;19940;-74
2021/01/05 01:55:42;;;;;;;;;;;14.90;67.60;;;;;;1042364;28;19999;-73
2021/01/05 01:56:13;;;;;;;;;;;14.80;67.40;;;;;;1044319;28;20270;-74
2021/01/05 01:57:02;;;;;;;;;;;14.80;68.00;;;;;;1047451;28;19914;-76
2021/01/05 01:57:51;;;;;;;;;;;14.80;68.00;;;;;;1044732;28;20235;-76
2021/01/05 01:58:40;;;;;;;;;;;14.80;67.90;;;;;;1047205;28;19932;-74
2021/01/05 01:59:23;;;;;;;;;;;14.80;68.10;;;;;;1045644;28;19901;-75
2021/01/05 02:00:12;;;;;;;;;;;14.70;68.40;;;;;;1046110;28;19920;-75
2021/01/05 02:00:57;;;;;;;;;;;14.70;68.20;;;;;;1055191;28;19908;-75
2021/01/05 02:01:42;;;;;;;;;;;14.70;68.10;;;;;;1056003;28;19969;-75
2021/01/05 02:02:15;;;;;;;;;;;14.80;67.10;;;;;;1056560;28;19907;-76
2021/01/05 02:03:04;;;;;;;;;;;14.80;67.40;;;;;;1055764;28;19904;-74
2021/01/05 02:03:35;;;;;;;;;;;14.70;67.70;;;;;;1059329;27;19911;-75
2021/01/05 02:04:15;;;;;;;;;;;14.70;68.00;;;;;;1059507;27;19904;-74
2021/01/05 02:04:58;;;;;;;;;;;14.70;68.10;;;;;;1058383;27;19925;-75
2021/01/05 02:05:32;;;;;;;;;;;14.70;68.40;;;;;;1059762;27;19907;-75
2021/01/05 02:06:21;;;;;;;;;;;14.70;68.40;;;;;;1058439;27;19916;-75
2021/01/05 02:07:08;;;;;;;;;;;14.70;68.50;;;;;;1059657;27;19911;-75
2021/01/05 02:07:45;;;;;;;;;;;14.70;68.70;;;;;;1058402;27;21364;-74
2021/01/05 02:08:16;;;;;;;;;;;14.70;68.80;;;;;;1058549;27;19918;-74
2021/01/05 02:08:56;;;;;;;;;;;14.70;68.80;;;;;;1058342;27;19970;-73
2021/01/05 02:09:27;;;;;;;;;;;14.60;68.80;;;;;;1060645;27;19927;-73
2021/01/05 02:10:12;;;;;;;;;;;14.60;69.00;;;;;;1058107;27;19947;-73
2021/01/05 02:10:55;;;;;;;;;;;14.60;69.00;;;;;;1057587;28;20248;-73
2021/01/05 02:11:26;;;;;;;;;;;14.60;69.10;;;;;;1065622;27;20296;-72
2021/01/05 02:11:57;;;;;;;;;;;14.60;69.00;;;;;;1061376;27;19907;-74
2021/01/05 02:12:31;;;;;;;;;;;14.60;69.60;;;;;;1060658;27;20057;-74
2021/01/05 02:13:08;;;;;;;;;;;14.60;69.00;;;;;;1061658;27;19911;-73
2021/01/05 02:13:52;;;;;;;;;;;14.60;68.90;;;;;;1063076;27;19903;-73
2021/01/05 02:14:48;;;;;;;;;;;14.60;68.90;;;;;;1064742;27;19933;-75
2021/01/05 02:15:35;;;;;;;;;;;14.60;69.20;;;;;;1057624;27;19934;-73
2021/01/05 02:16:31;;;;;;;;;;;14.70;69.00;;;;;;1061588;27;19914;-74
2021/01/05 02:17:21;;;;;;;;;;;14.70;68.40;;;;;;1057261;27;20265;-75
2021/01/05 02:18:03;;;;;;;;;;;14.70;69.00;;;;;;1062131;27;19943;-76
2021/01/05 02:18:45;;;;;;;;;;;14.60;69.20;;;;;;1064123;27;20305;-75
2021/01/05 02:19:24;;;;;;;;;;;14.70;69.40;;;;;;1066298;27;20281;-73
2021/01/05 02:19:58;;;;;;;;;;;14.70;69.10;;;;;;1066363;27;19903;-73
2021/01/05 02:20:44;;;;;;;;;;;14.80;68.60;;;;;;1061731;27;19934;-74
2021/01/05 02:21:22;;;;;;;;;;;14.70;68.60;;;;;;1059236;27;19943;-72
2021/01/05 02:22:23;;;;;;;;;;;14.70;68.70;;;;;;1061634;27;19903;-73
2021/01/05 02:22:54;;;;;;;;;;;14.70;69.10;;;;;;1062292;27;20006;-75
2021/01/05 02:23:44;;;;;;;;;;;14.60;69.50;;;;;;1058655;27;19910;-74
2021/01/05 02:24:34;;;;;;;;;;;14.70;69.70;;;;;;1053836;28;19991;-74
2021/01/05 02:25:07;;;;;;;;;;;14.70;69.60;;;;;;1055749;27;19912;-74
2021/01/05 02:25:57;;;;;;;;;;;14.70;68.90;;;;;;1061510;27;20244;-74
2021/01/05 02:26:34;;;;;;;;;;;14.70;69.10;;;;;;1064577;27;20254;-75
2021/01/05 02:27:07;;;;;;;;;;;14.70;69.20;;;;;;1064134;27;19934;-75
2021/01/05 02:27:43;;;;;;;;;;;14.70;69.20;;;;;;1061766;27;19903;-75
2021/01/05 02:28:16;;;;;;;;;;;14.70;69.50;;;;;;1062010;27;19903;-75
2021/01/05 02:28:51;;;;;;;;;;;14.70;69.50;;;;;;1061791;27;19915;-75
2021/01/05 02:29:24;;;;;;;;;;;14.70;69.60;;;;;;1059667;27;19911;-75
2021/01/05 02:29:58;;;;;;;;;;;14.60;69.50;;;;;;1056947;28;19903;-74
2021/01/05 02:30:33;;;;;;;;;;;14.70;70.00;;;;;;1057941;27;19954;-74
2021/01/05 02:31:24;;;;;;;;;;;14.60;70.40;;;;;;1058631;27;20328;-74
2021/01/05 02:32:14;;;;;;;;;;;14.60;70.40;;;;;;1064486;27;19950;-74
2021/01/05 02:32:57;;;;;;;;;;;14.60;70.50;;;;;;1066148;27;20342;-74
2021/01/05 02:33:28;;;;;;;;;;;14.60;70.50;;;;;;1066062;27;20324;-75
2021/01/05 02:34:11;;;;;;;;;;;14.60;70.50;;;;;;1061622;27;19903;-74
2021/01/05 02:35:05;;;;;;;;;;;14.60;70.40;;;;;;1057458;28;19907;-75
2021/01/05 02:35:42;;;;;;;;;;;14.60;70.40;;;;;;1057922;27;19903;-74
2021/01/05 02:36:31;;;;;;;;;;;14.60;70.60;;;;;;1059874;27;20021;-74
2021/01/05 02:37:05;;;;;;;;;;;14.60;70.70;;;;;;1058854;28;19904;-74
2021/01/05 02:38:11;;;;;;;;;;;14.60;70.70;;;;;;1065379;27;20247;-74
2021/01/05 02:39:00;;;;;;;;;;;14.60;71.40;;;;;;1048605;28;19942;-74
2021/01/05 02:39:52;;;;;;;;;;;14.60;70.90;;;;;;1044556;28;19908;-74
2021/01/05 02:40:23;;;;;;;;;;;14.60;70.90;;;;;;1028635;28;19942;-75
2021/01/05 02:41:03;;;;;;;;;;;14.60;71.40;;;;;;1024576;29;20360;-74
2021/01/05 02:41:40;;;;;;;;;;;14.50;71.40;;;;;;1056507;27;19918;-73
2021/01/05 02:42:11;;;;;;;;;;;14.50;71.50;;;;;;1061767;27;19910;-73
2021/01/05 02:42:53;;;;;;;;;;;14.50;71.50;;;;;;1064363;27;19903;-73
2021/01/05 02:43:24;;;;;;;;;;;14.60;71.60;;;;;;1061501;27;19903;-74
2021/01/05 02:44:14;;;;;;;;;;;14.60;71.60;;;;;;1060755;27;19903;-74
2021/01/05 02:44:50;;;;;;;;;;;14.50;71.60;;;;;;1057266;28;19908;-74
2021/01/05 02:45:39;;;;;;;;;;;14.60;71.50;;;;;;1061091;27;20316;-74
2021/01/05 02:46:10;;;;;;;;;;;14.50;71.50;;;;;;1061125;27;19908;-75
2021/01/05 02:46:44;;;;;;;;;;;14.50;71.80;;;;;;1060125;27;19903;-75
2021/01/05 02:47:33;;;;;;;;;;;14.50;71.80;;;;;;1061192;27;20006;-75
2021/01/05 02:48:22;;;;;;;;;;;14.60;71.50;;;;;;1056513;28;19904;-75
2021/01/05 02:49:11;;;;;;;;;;;14.50;71.70;;;;;;1061434;27;19903;-75
2021/01/05 02:49:46;;;;;;;;;;;14.50;71.30;;;;;;1061603;27;19907;-74
2021/01/05 02:50:20;;;;;;;;;;;14.50;71.00;;;;;;1057495;28;19907;-74
2021/01/05 02:50:53;;;;;;;;;;;14.50;71.30;;;;;;1053129;28;20265;-74
2021/01/05 02:51:43;;;;;;;;;;;14.50;71.30;;;;;;1055011;28;19904;-74
2021/01/05 02:52:27;;;;;;;;;;;14.50;71.20;;;;;;1057571;28;19904;-74
2021/01/05 02:53:12;;;;;;;;;;;14.40;71.00;;;;;;1062216;27;19971;-74
2021/01/05 02:53:54;;;;;;;;;;;14.40;71.20;;;;;;1063898;27;20529;-74
2021/01/05 02:54:50;;;;;;;;;;;14.40;71.40;;;;;;1059848;27;20400;-75
2021/01/05 02:55:37;;;;;;;;;;;14.40;71.40;;;;;;1059701;27;19915;-74
2021/01/05 02:56:08;;;;;;;;;;;14.40;71.40;;;;;;1062359;27;20005;-75
2021/01/05 02:56:48;;;;;;;;;;;14.40;71.60;;;;;;1063824;27;19907;-75
2021/01/05 02:57:37;;;;;;;;;;;14.40;71.80;;;;;;1059397;27;20365;-76
2021/01/05 02:58:19;;;;;;;;;;;14.40;71.60;;;;;;1056590;28;19962;-74
2021/01/05 02:58:50;;;;;;;;;;;14.40;71.50;;;;;;1056836;28;19926;-73
2021/01/05 02:59:36;;;;;;;;;;;14.30;71.50;;;;;;1058458;27;19951;-75
2021/01/05 03:00:26;;;;;;;;;;;14.40;71.60;;;;;;1063574;27;19946;-75
2021/01/05 03:01:08;;;;;;;;;;;14.30;71.60;;;;;;1057495;28;20356;-74
2021/01/05 03:01:45;;;;;;;;;;;14.20;71.70;;;;;;1060202;27;19919;-74
2021/01/05 03:02:28;;;;;;;;;;;14.20;71.90;;;;;;1057769;27;20322;-74
2021/01/05 03:03:34;;;;;;;;;;;14.10;72.00;;;;;;1064660;27;19918;-74
2021/01/05 03:04:05;;;;;;;;;;;14.10;72.20;;;;;;1042143;28;19916;-74
2021/01/05 03:04:36;;;;;;;;;;;14.10;72.60;;;;;;1039992;28;19960;-73
2021/01/05 03:05:08;;;;;;;;;;;14.10;72.60;;;;;;1039544;28;19913;-74
2021/01/05 03:05:44;;;;;;;;;;;14.10;72.60;;;;;;1038002;28;19949;-74
2021/01/05 03:06:21;;;;;;;;;;;14.10;72.80;;;;;;1041236;28;20000;-74
2021/01/05 03:06:54;;;;;;;;;;;14.00;72.90;;;;;;1056819;27;19899;-74
2021/01/05 03:07:27;;;;;;;;;;;14.00;73.10;;;;;;1064860;27;20379;-74
2021/01/05 03:07:58;;;;;;;;;;;14.00;73.20;;;;;;1063648;27;19907;-75
2021/01/05 03:08:30;;;;;;;;;;;13.90;73.30;;;;;;1066015;27;19942;-74
2021/01/05 03:09:05;;;;;;;;;;;13.90;73.60;;;;;;1064583;27;19903;-74
2021/01/05 03:09:42;;;;;;;;;;;13.80;73.80;;;;;;1066055;27;19903;-74
2021/01/05 03:10:19;;;;;;;;;;;13.80;74.00;;;;;;1064347;27;19899;-76
2021/01/05 03:11:06;;;;;;;;;;;13.70;74.30;;;;;;1065771;27;19907;-75
2021/01/05 03:11:45;;;;;;;;;;;13.70;74.60;;;;;;1066357;27;19942;-74
2021/01/05 03:12:28;;;;;;;;;;;13.60;74.80;;;;;;1062054;28;19910;-75
2021/01/05 03:13:05;;;;;;;;;;;13.50;74.90;;;;;;1062334;27;20442;-75
2021/01/05 03:13:48;;;;;;;;;;;13.50;75.20;;;;;;1065982;27;19900;-76
2021/01/05 03:14:31;;;;;;;;;;;13.40;75.40;;;;;;1059322;28;19952;-75
2021/01/05 03:15:20;;;;;;;;;;;13.40;75.50;;;;;;1059784;28;19904;-75
2021/01/05 03:15:57;;;;;;;;;;;13.30;75.90;;;;;;1057456;28;19914;-74
2021/01/05 03:16:32;;;;;;;;;;;13.20;76.10;;;;;;1057897;28;19903;-74
2021/01/05 03:17:35;;;;;;;;;;;13.20;76.30;;;;;;1063021;27;19911;-73
2021/01/05 03:18:11;;;;;;;;;;;13.10;76.60;;;;;;1048479;28;19944;-73
2021/01/05 03:18:44;;;;;;;;;;;13.10;76.80;;;;;;1048418;28;20321;-73
2021/01/05 03:19:30;;;;;;;;;;;13.10;76.80;;;;;;1053956;27;19974;-73
2021/01/05 03:20:10;;;;;;;;;;;13.00;76.80;;;;;;1061105;27;20316;-73
2021/01/05 03:20:58;;;;;;;;;;;13.00;77.00;;;;;;1061175;27;20368;-73
2021/01/05 03:21:34;;;;;;;;;;;13.00;76.90;;;;;;1060985;27;19908;-73
2021/01/05 03:22:07;;;;;;;;;;;13.00;76.90;;;;;;1060500;27;19914;-74
2021/01/05 03:22:43;;;;;;;;;;;13.00;76.80;;;;;;1060702;27;19903;-74
2021/01/05 03:23:34;;;;;;;22.38;4.65;;;13.00;76.50;;;;;;1047830;28;20466;-74
2021/01/05 03:24:09;;;;;;;22.83;4.45;;;13.00;77.00;;;;;;1047649;28;20021;-75
2021/01/05 03:24:42;;;;;;;20.60;5.10;;;12.90;77.10;;;;;;1047649;28;20059;-73